createdAt,value
2023-01-17T00:02:29.117Z,11.43
2023-01-17T00:05:29.520Z,14.43
2023-01-17T00:08:53.033Z,12.20
2023-01-17T00:12:14.716Z,12.83
2023-01-17T00:15:19.734Z,12.13
2023-01-17T00:18:06.897Z,9.87
2023-01-17T00:21:12.258Z,13.27
2023-01-17T00:23:58.253Z,14.53
2023-01-17T00:27:03.980Z,14.87
2023-01-17T00:29:51.060Z,13.50
2023-01-17T00:32:57.901Z,14.13
2023-01-17T00:35:27.564Z,15.63
2023-01-17T00:38:35.879Z,18.50
2023-01-17T00:41:22.974Z,15.57
2023-01-17T00:44:48.775Z,17.20
2023-01-17T00:47:49.227Z,17.80
2023-01-17T00:51:09.562Z,16.33
2023-01-17T00:54:29.947Z,20.30
2023-01-17T00:57:36.030Z,19.13
2023-01-17T01:00:41.743Z,17.70
2023-01-17T01:04:01.976Z,20.33
2023-01-17T01:07:07.912Z,19.07
2023-01-17T01:10:13.483Z,19.87
2023-01-17T01:13:13.854Z,23.27
2023-01-17T01:16:19.831Z,18.73
2023-01-17T01:19:45.081Z,18.07
2023-01-17T01:23:05.663Z,18.90
2023-01-17T01:26:11.403Z,23.07
2023-01-17T01:29:17.125Z,17.63
2023-01-17T01:32:17.340Z,19.93
2023-01-17T01:35:04.708Z,18.90
2023-01-17T01:38:11.670Z,18.47
2023-01-17T01:41:13.449Z,20.73
2023-01-17T01:44:33.752Z,17.20
2023-01-17T01:47:21.565Z,18.23
2023-01-17T01:49:49.311Z,21.27
2023-01-17T01:52:51.966Z,16.37
2023-01-17T01:55:39.169Z,18.40
2023-01-17T01:58:48.810Z,16.77
2023-01-17T02:01:36.161Z,17.90
2023-01-17T02:04:43.633Z,18.07
2023-01-17T02:07:54.064Z,15.37
2023-01-17T02:10:56.776Z,16.20
2023-01-17T02:13:24.120Z,19.50
2023-01-17T02:16:28.567Z,17.03
2023-01-17T02:19:43.527Z,17.20
2023-01-17T02:22:58.016Z,21.63
2023-01-17T02:26:07.716Z,18.73
2023-01-17T02:29:07.099Z,17.50
2023-01-17T02:32:13.076Z,21.97
2023-01-17T02:35:11.379Z,16.03
2023-01-17T02:37:44.479Z,18.10
2023-01-17T02:40:37.096Z,16.53
2023-01-17T02:43:44.189Z,16.83
2023-01-17T02:46:31.368Z,17.63
2023-01-17T02:49:21.166Z,18.43
2023-01-17T02:52:08.140Z,15.53
2023-01-17T02:55:01.805Z,18.07
2023-01-17T02:58:07.561Z,17.47
2023-01-17T03:00:47.765Z,16.73
2023-01-17T03:03:15.097Z,18.30
2023-01-17T03:06:44.576Z,21.37
2023-01-17T03:09:46.757Z,16.47
2023-01-17T03:12:30.228Z,18.77
2023-01-17T03:15:17.739Z,17.10
2023-01-17T03:18:24.668Z,16.23
2023-01-17T03:21:11.922Z,17.47
2023-01-17T03:23:38.842Z,21.57
2023-01-17T03:26:26.107Z,17.50
2023-01-17T03:29:13.067Z,17.30
2023-01-17T03:32:00.683Z,16.50
2023-01-17T03:34:27.654Z,16.70
2023-01-17T03:37:14.965Z,17.70
2023-01-17T03:40:22.250Z,18.00
2023-01-17T03:43:24.023Z,17.17
2023-01-17T03:45:54.431Z,14.77
2023-01-17T03:48:41.627Z,19.80
2023-01-17T03:51:48.747Z,15.03
2023-01-17T03:54:35.723Z,15.23
2023-01-17T03:57:37.515Z,14.13
2023-01-17T04:00:39.660Z,16.60
2023-01-17T04:03:22.178Z,14.20
2023-01-17T04:06:23.975Z,14.93
2023-01-17T04:09:11.159Z,18.10
2023-01-17T04:12:18.052Z,16.57
2023-01-17T04:15:39.782Z,15.83
2023-01-17T04:18:27.099Z,17.97
2023-01-17T04:20:54.062Z,17.83
2023-01-17T04:23:55.836Z,18.40
2023-01-17T04:26:43.067Z,15.87
2023-01-17T04:29:50.059Z,16.33
2023-01-17T04:32:17.347Z,16.57
2023-01-17T04:35:24.645Z,17.13
2023-01-17T04:38:11.816Z,17.03
2023-01-17T04:41:18.782Z,14.00
2023-01-17T04:43:46.004Z,13.27
2023-01-17T04:46:32.993Z,14.87
2023-01-17T04:49:20.166Z,15.00
2023-01-17T04:52:47.012Z,17.20
2023-01-17T04:56:08.771Z,16.10
2023-01-17T04:59:10.568Z,12.30
2023-01-17T05:01:37.902Z,16.03
2023-01-17T05:04:25.454Z,15.13
2023-01-17T05:07:27.236Z,14.60
2023-01-17T05:10:29.939Z,15.27
2023-01-17T05:12:58.754Z,14.37
2023-01-17T05:16:06.043Z,16.70
2023-01-17T05:19:07.875Z,15.77
2023-01-17T05:22:32.420Z,15.07
2023-01-17T05:25:54.135Z,13.27
2023-01-17T05:28:41.349Z,14.80
2023-01-17T05:31:28.279Z,13.90
2023-01-17T05:34:15.522Z,15.63
2023-01-17T05:37:02.395Z,15.03
2023-01-17T05:40:06.683Z,15.30
2023-01-17T05:42:53.686Z,16.87
2023-01-17T05:45:40.947Z,15.20
2023-01-17T05:48:27.852Z,18.27
2023-01-17T05:51:15.128Z,13.43
2023-01-17T05:53:42.058Z,13.07
2023-01-17T05:56:29.224Z,14.93
2023-01-17T05:59:17.325Z,18.63
2023-01-17T06:02:42.339Z,15.87
2023-01-17T06:05:50.219Z,15.13
2023-01-17T06:08:57.251Z,16.33
2023-01-17T06:11:24.518Z,15.47
2023-01-17T06:14:31.416Z,14.97
2023-01-17T06:17:18.569Z,14.80
2023-01-17T06:20:05.436Z,14.47
2023-01-17T06:22:47.277Z,15.93
2023-01-17T06:25:43.693Z,15.30
2023-01-17T06:28:30.731Z,13.60
2023-01-17T06:31:18.388Z,15.07
2023-01-17T06:33:45.457Z,16.90
2023-01-17T06:36:47.212Z,17.37
2023-01-17T06:39:34.480Z,13.13
2023-01-17T06:42:41.528Z,13.87
2023-01-17T06:45:09.175Z,18.27
2023-01-17T06:47:59.516Z,13.83
2023-01-17T06:51:21.222Z,14.50
2023-01-17T06:54:23.033Z,15.47
2023-01-17T06:57:24.849Z,13.83
2023-01-17T07:00:27.236Z,15.97
2023-01-17T07:02:55.000Z,17.87
2023-01-17T07:05:22.361Z,15.37
2023-01-17T07:07:49.723Z,17.23
2023-01-17T07:10:16.903Z,18.03
2023-01-17T07:12:44.379Z,16.97
2023-01-17T07:15:11.833Z,14.77
2023-01-17T07:17:39.635Z,22.23
2023-01-17T07:20:07.182Z,17.77
2023-01-17T07:22:34.487Z,18.73
2023-01-17T07:25:01.467Z,17.53
2023-01-17T07:27:30.562Z,18.17
2023-01-17T07:29:58.236Z,19.33
2023-01-17T07:32:28.194Z,16.63
2023-01-17T07:34:57.628Z,16.73
2023-01-17T07:37:26.460Z,15.70
2023-01-17T07:39:54.609Z,16.53
2023-01-17T07:42:24.239Z,15.33
2023-01-17T07:44:51.436Z,16.97
2023-01-17T07:47:19.974Z,18.27
2023-01-17T07:49:46.985Z,16.97
2023-01-17T07:52:14.596Z,15.37
2023-01-17T07:54:42.403Z,15.00
2023-01-17T07:57:12.418Z,16.17
2023-01-17T07:59:39.331Z,16.10
2023-01-17T08:02:07.967Z,18.70
2023-01-17T08:04:35.330Z,17.10
2023-01-17T08:07:02.910Z,18.03
2023-01-17T08:09:30.137Z,16.60
2023-01-17T08:11:57.406Z,15.50
2023-01-17T08:14:24.995Z,15.13
2023-01-17T08:16:52.732Z,20.20
2023-01-17T08:19:19.854Z,15.17
2023-01-17T08:21:47.090Z,14.87
2023-01-17T08:24:14.720Z,13.10
2023-01-17T08:26:42.078Z,12.33
2023-01-17T08:29:09.614Z,11.93
2023-01-17T08:31:36.970Z,12.03
2023-01-17T08:34:04.430Z,11.43
2023-01-17T08:36:31.763Z,11.43
2023-01-17T08:38:58.967Z,12.33
2023-01-17T08:41:29.338Z,11.13
2023-01-17T08:43:56.349Z,11.07
2023-01-17T08:46:24.996Z,11.23
2023-01-17T08:48:56.569Z,12.93
2023-01-17T08:51:26.410Z,11.57
2023-01-17T08:53:55.203Z,14.13
2023-01-17T08:56:27.310Z,13.23
2023-01-17T08:58:54.437Z,11.67
2023-01-17T09:01:21.836Z,11.40
2023-01-17T09:03:51.436Z,9.33
2023-01-17T09:06:19.256Z,15.10
2023-01-17T09:08:47.068Z,12.87
2023-01-17T09:11:16.946Z,11.00
2023-01-17T09:13:44.738Z,11.27
2023-01-17T09:16:12.274Z,11.03
2023-01-17T09:18:39.357Z,9.77
2023-01-17T09:21:14.469Z,12.40
2023-01-17T09:23:42.205Z,10.43
2023-01-17T09:26:25.283Z,10.13
2023-01-17T09:28:52.837Z,12.50
2023-01-17T09:31:21.472Z,10.00
2023-01-17T09:33:49.894Z,8.50
2023-01-17T09:36:17.315Z,10.23
2023-01-17T09:38:44.721Z,8.70
2023-01-17T09:41:35.146Z,12.53
2023-01-17T09:44:18.904Z,12.90
2023-01-17T09:46:48.496Z,8.73
2023-01-17T09:49:32.163Z,12.13
2023-01-17T09:52:00.255Z,10.37
2023-01-17T09:54:34.407Z,12.73
2023-01-17T09:57:07.315Z,9.90
2023-01-17T09:59:45.647Z,12.33
2023-01-17T10:03:01.720Z,12.43
2023-01-17T10:05:52.742Z,11.33
2023-01-17T10:08:38.897Z,9.97
2023-01-17T10:11:26.848Z,12.43
2023-01-17T10:14:14.380Z,13.30
2023-01-17T10:17:22.350Z,12.30
2023-01-17T10:20:07.781Z,12.40
2023-01-17T10:22:43.111Z,13.23
2023-01-17T10:25:23.633Z,10.57
2023-01-17T10:28:04.897Z,9.07
2023-01-17T10:30:39.324Z,12.07
2023-01-17T10:33:31.334Z,15.00
2023-01-17T10:36:03.865Z,9.93
2023-01-17T10:38:38.755Z,10.97
2023-01-17T10:41:17.108Z,9.50
2023-01-17T10:43:52.468Z,11.20
2023-01-17T10:46:25.213Z,12.27
2023-01-17T10:48:52.922Z,11.77
2023-01-17T10:51:44.825Z,11.43
2023-01-17T10:54:31.893Z,13.03
2023-01-17T10:56:59.423Z,13.20
2023-01-17T10:59:33.838Z,14.03
2023-01-17T11:02:07.519Z,12.93
2023-01-17T11:04:40.716Z,11.10
2023-01-17T11:07:16.985Z,10.93
2023-01-17T11:09:53.307Z,14.27
2023-01-17T11:12:20.592Z,14.23
2023-01-17T11:15:10.605Z,12.23
2023-01-17T11:17:46.896Z,16.13
2023-01-17T11:20:31.692Z,13.53
2023-01-17T11:23:11.498Z,12.27
2023-01-17T11:25:39.158Z,14.60
2023-01-17T11:28:30.502Z,13.60
2023-01-17T11:31:00.750Z,14.33
2023-01-17T11:33:47.944Z,13.10
2023-01-17T11:36:41.557Z,14.93
2023-01-17T11:39:17.750Z,15.07
2023-01-17T11:41:47.776Z,12.67
2023-01-17T11:44:30.543Z,14.37
2023-01-17T11:47:12.765Z,11.37
2023-01-17T11:49:50.139Z,11.10
2023-01-17T11:52:31.972Z,13.03
2023-01-17T11:54:59.776Z,16.30
2023-01-17T11:57:31.399Z,12.37
2023-01-17T12:00:11.886Z,12.87
2023-01-17T12:03:01.173Z,13.60
2023-01-17T12:05:53.732Z,22.77
2023-01-17T12:08:20.643Z,17.77
2023-01-17T12:11:07.352Z,14.80
2023-01-17T12:14:01.812Z,16.50
2023-01-17T12:16:41.176Z,17.00
2023-01-17T12:19:38.062Z,15.37
2023-01-17T12:22:50.410Z,15.90
2023-01-17T12:25:27.329Z,12.53
2023-01-17T12:28:16.506Z,16.80
2023-01-17T12:30:46.467Z,15.97
2023-01-17T12:33:32.973Z,13.93
2023-01-17T12:36:05.192Z,13.90
2023-01-17T12:38:38.827Z,17.40
2023-01-17T12:41:17.920Z,18.13
2023-01-17T12:43:45.928Z,15.33
2023-01-17T12:46:24.575Z,15.73
2023-01-17T12:48:58.311Z,13.23
2023-01-17T12:51:33.399Z,16.50
2023-01-17T12:54:09.496Z,15.97
2023-01-17T12:56:58.861Z,16.37
2023-01-17T12:59:37.053Z,17.20
2023-01-17T13:02:31.554Z,15.20
2023-01-17T13:05:15.372Z,15.40
2023-01-17T13:08:01.916Z,16.70
2023-01-17T13:10:39.070Z,15.00
2023-01-17T13:13:22.473Z,14.90
2023-01-17T13:16:02.528Z,14.33
2023-01-17T13:18:30.058Z,19.13
2023-01-17T13:21:42.609Z,15.77
2023-01-17T13:24:51.943Z,15.10
2023-01-17T13:27:31.395Z,17.73
2023-01-17T13:30:04.478Z,15.10
2023-01-17T13:32:57.450Z,17.67
2023-01-17T13:35:50.992Z,16.70
2023-01-17T13:38:27.137Z,17.83
2023-01-17T13:40:54.071Z,16.13
2023-01-17T13:44:01.924Z,15.47
2023-01-17T13:46:51.989Z,17.10
2023-01-17T13:49:45.185Z,16.20
2023-01-17T13:52:20.945Z,16.37
2023-01-17T13:54:51.215Z,18.50
2023-01-17T13:57:29.551Z,17.23
2023-01-17T13:59:58.985Z,15.73
2023-01-17T14:02:39.475Z,15.73
2023-01-17T14:05:12.946Z,18.07
2023-01-17T14:07:59.775Z,20.03
2023-01-17T14:10:47.746Z,23.87
2023-01-17T14:13:38.422Z,15.27
2023-01-17T14:16:24.461Z,17.77
2023-01-17T14:18:53.010Z,17.60
2023-01-17T14:21:29.086Z,19.00
2023-01-17T14:24:22.246Z,20.87
2023-01-17T14:26:59.203Z,16.47
2023-01-17T14:29:57.514Z,16.13
2023-01-17T14:32:37.777Z,16.57
2023-01-17T14:35:22.639Z,18.97
2023-01-17T14:37:53.029Z,18.47
2023-01-17T14:40:30.756Z,16.57
2023-01-17T14:43:21.948Z,21.37
2023-01-17T14:45:49.448Z,17.43
2023-01-17T14:48:20.565Z,14.87
2023-01-17T14:50:49.469Z,19.67
2023-01-17T14:53:19.936Z,15.77
2023-01-17T14:55:56.461Z,18.33
2023-01-17T14:58:32.037Z,20.67
2023-01-17T15:01:13.920Z,22.23
2023-01-17T15:03:49.405Z,18.40
2023-01-17T15:06:40.700Z,20.03
2023-01-17T15:09:18.423Z,20.20
2023-01-17T15:11:47.799Z,19.80
2023-01-17T15:14:22.177Z,20.03
2023-01-17T15:16:52.151Z,18.07
2023-01-17T15:19:20.312Z,22.97
2023-01-17T15:21:51.393Z,17.80
2023-01-17T15:24:22.828Z,22.00
2023-01-17T15:26:51.213Z,21.40
2023-01-17T15:29:41.760Z,25.53
2023-01-17T15:32:23.727Z,17.60
2023-01-17T15:34:52.065Z,22.17
2023-01-17T15:37:40.665Z,22.40
2023-01-17T15:40:17.241Z,18.20
2023-01-17T15:42:47.496Z,19.67
2023-01-17T15:45:20.461Z,18.73
2023-01-17T15:47:48.942Z,18.30
2023-01-17T15:50:28.543Z,19.70
2023-01-17T15:52:59.115Z,23.83
2023-01-17T15:55:35.709Z,24.50
2023-01-17T15:58:04.694Z,24.17
2023-01-17T16:00:39.224Z,18.73
2023-01-17T16:03:18.151Z,22.83
2023-01-17T16:05:46.076Z,19.77
2023-01-17T16:08:15.397Z,22.30
2023-01-17T16:10:43.827Z,25.57
2023-01-17T16:13:12.936Z,22.67
2023-01-17T16:15:43.143Z,19.50
2023-01-17T16:18:23.002Z,23.40
2023-01-17T16:21:17.017Z,18.57
2023-01-17T16:23:44.155Z,22.17
2023-01-17T16:26:11.438Z,21.67
2023-01-17T16:28:38.914Z,20.57
2023-01-17T16:31:06.360Z,26.77
2023-01-17T16:33:33.389Z,22.27
2023-01-17T16:36:00.659Z,26.50
2023-01-17T16:38:27.894Z,21.97
2023-01-17T16:40:55.178Z,21.30
2023-01-17T16:43:22.165Z,20.57
2023-01-17T16:45:53.193Z,22.30
2023-01-17T16:48:21.628Z,24.37
2023-01-17T16:50:52.337Z,33.23
2023-01-17T16:53:25.244Z,23.87
2023-01-17T16:55:58.354Z,22.37
2023-01-17T16:58:25.680Z,23.80
2023-01-17T17:00:55.296Z,24.27
2023-01-17T17:03:22.785Z,23.77
2023-01-17T17:05:58.487Z,19.90
2023-01-17T17:08:25.535Z,20.63
2023-01-17T17:10:52.911Z,22.63
2023-01-17T17:13:20.192Z,25.90
2023-01-17T17:15:47.747Z,21.20
2023-01-17T17:18:16.493Z,19.27
2023-01-17T17:20:44.968Z,25.43
2023-01-17T17:23:12.395Z,20.10
2023-01-17T17:25:40.294Z,21.17
2023-01-17T17:28:07.236Z,18.67
2023-01-17T17:30:36.266Z,18.67
2023-01-17T17:33:04.620Z,19.83
2023-01-17T17:35:34.948Z,24.70
2023-01-17T17:38:02.074Z,18.57
2023-01-17T17:40:29.291Z,23.73
2023-01-17T17:42:56.256Z,29.93
2023-01-17T17:45:23.607Z,27.73
2023-01-17T17:47:50.671Z,27.80
2023-01-17T17:50:18.165Z,28.33
2023-01-17T17:52:45.073Z,23.17
2023-01-17T17:55:13.186Z,23.10
2023-01-17T17:57:40.185Z,23.60
2023-01-17T18:00:08.164Z,26.77
2023-01-17T18:02:35.161Z,30.23
2023-01-17T18:05:02.563Z,33.30
2023-01-17T18:07:32.835Z,32.27
2023-01-17T18:10:00.097Z,29.63
2023-01-17T18:12:27.127Z,33.53
2023-01-17T18:14:54.406Z,40.93
2023-01-17T18:17:21.434Z,54.73
2023-01-17T18:19:48.632Z,57.50
2023-01-17T18:22:15.690Z,51.27
2023-01-17T18:24:42.962Z,53.17
2023-01-17T18:27:10.526Z,42.10
2023-01-17T18:29:37.735Z,40.67
2023-01-17T18:32:04.871Z,42.50
2023-01-17T18:34:33.784Z,39.93
2023-01-17T18:37:01.036Z,37.63
2023-01-17T18:39:29.997Z,45.40
2023-01-17T18:41:57.703Z,43.67
2023-01-17T18:44:26.704Z,39.70
2023-01-17T18:46:54.836Z,43.23
2023-01-17T18:49:22.457Z,48.13
2023-01-17T18:51:51.243Z,41.13
2023-01-17T18:54:19.943Z,49.20
2023-01-17T18:56:47.015Z,51.90
2023-01-17T18:59:18.144Z,53.27
2023-01-17T19:01:45.377Z,55.77
2023-01-17T19:04:14.635Z,52.90
2023-01-17T19:06:43.917Z,62.53
2023-01-17T19:09:13.259Z,54.00
2023-01-17T19:11:40.533Z,70.20
2023-01-17T19:14:07.809Z,55.27
2023-01-17T19:16:39.441Z,55.93
2023-01-17T19:19:12.169Z,54.27
2023-01-17T19:21:39.604Z,62.63
2023-01-17T19:24:07.569Z,58.60
2023-01-17T19:26:34.597Z,63.77
2023-01-17T19:29:05.253Z,55.20
2023-01-17T19:31:36.211Z,62.67
2023-01-17T19:34:03.538Z,69.03
2023-01-17T19:36:36.195Z,63.53
2023-01-17T19:39:06.687Z,62.83
2023-01-17T19:41:36.267Z,56.57
2023-01-17T19:44:06.785Z,55.00
2023-01-17T19:46:34.794Z,58.47
2023-01-17T19:49:02.457Z,62.67
2023-01-17T19:51:29.885Z,62.23
2023-01-17T19:53:59.888Z,62.63
2023-01-17T19:56:27.776Z,55.77
2023-01-17T19:58:57.174Z,46.90
2023-01-17T20:01:28.749Z,60.27
2023-01-17T20:03:58.039Z,85.27
2023-01-17T20:06:27.693Z,95.20
2023-01-17T20:08:54.924Z,91.50
2023-01-17T20:11:23.452Z,88.47
2023-01-17T20:13:56.121Z,70.80
2023-01-17T20:16:24.767Z,60.90
2023-01-17T20:18:52.208Z,60.77
2023-01-17T20:21:21.720Z,60.20
2023-01-17T20:23:50.425Z,64.03
2023-01-17T20:26:20.483Z,66.77
2023-01-17T20:28:49.512Z,67.30
2023-01-17T20:31:19.215Z,64.17
2023-01-17T20:33:47.760Z,69.27
2023-01-17T20:36:16.653Z,69.03
2023-01-17T20:38:44.906Z,91.63
2023-01-17T20:41:14.499Z,63.57
2023-01-17T20:43:43.128Z,55.60
2023-01-17T20:46:10.886Z,56.87
2023-01-17T20:48:47.476Z,58.97
2023-01-17T20:51:15.629Z,67.57
2023-01-17T20:53:44.709Z,55.17
2023-01-17T20:56:14.230Z,59.33
2023-01-17T20:58:42.094Z,70.47
2023-01-17T21:01:11.455Z,86.90
2023-01-17T21:03:40.130Z,82.90
2023-01-17T21:06:12.027Z,90.63
2023-01-17T21:08:40.963Z,70.93
2023-01-17T21:11:12.435Z,79.30
2023-01-17T21:13:40.244Z,73.57
2023-01-17T21:16:09.288Z,77.90
2023-01-17T21:18:36.645Z,80.13
2023-01-17T21:21:05.745Z,95.63
2023-01-17T21:23:37.752Z,81.27
2023-01-17T21:26:06.227Z,68.37
2023-01-17T21:28:35.522Z,68.63
2023-01-17T21:31:16.706Z,63.87
2023-01-17T21:33:44.109Z,58.40
2023-01-17T21:36:11.391Z,56.43
2023-01-17T21:38:39.108Z,62.23
2023-01-17T21:41:06.422Z,57.57
2023-01-17T21:43:33.619Z,55.30
2023-01-17T21:46:04.834Z,59.73
2023-01-17T21:48:32.265Z,64.80
2023-01-17T21:51:09.190Z,66.60
2023-01-17T21:53:38.492Z,59.47
2023-01-17T21:56:26.403Z,65.40
2023-01-17T21:58:56.832Z,62.57
2023-01-17T22:01:27.414Z,67.23
2023-01-17T22:04:01.059Z,66.57
2023-01-17T22:06:30.386Z,59.57
2023-01-17T22:08:58.071Z,70.30
2023-01-17T22:11:27.427Z,57.10
2023-01-17T22:13:56.742Z,55.43
2023-01-17T22:16:26.045Z,67.47
2023-01-17T22:18:53.303Z,65.43
2023-01-17T22:21:22.809Z,65.03
2023-01-17T22:23:52.155Z,67.87
2023-01-17T22:26:21.144Z,62.10
2023-01-17T22:28:48.376Z,61.83
2023-01-17T22:31:19.141Z,60.30
2023-01-17T22:33:48.249Z,61.60
2023-01-17T22:36:15.424Z,63.50
2023-01-17T22:38:44.281Z,62.57
2023-01-17T22:41:16.043Z,62.37
2023-01-17T22:43:46.843Z,59.57
2023-01-17T22:46:19.418Z,59.60
2023-01-17T22:48:47.012Z,64.20
2023-01-17T22:51:16.974Z,63.77
2023-01-17T22:53:47.323Z,58.13
2023-01-17T22:56:21.398Z,65.83
2023-01-17T22:58:49.149Z,58.87
2023-01-17T23:01:22.548Z,68.43
2023-01-17T23:04:03.356Z,79.93
2023-01-17T23:06:32.587Z,65.13
2023-01-17T23:09:02.515Z,62.60
2023-01-17T23:11:40.970Z,61.57
2023-01-17T23:14:14.680Z,62.87
2023-01-17T23:17:22.399Z,59.57
2023-01-17T23:19:52.568Z,61.13
2023-01-17T23:22:26.803Z,55.57
2023-01-17T23:25:07.614Z,61.93
2023-01-17T23:28:01.775Z,51.00
2023-01-17T23:30:34.619Z,70.80
2023-01-17T23:33:05.102Z,61.83
2023-01-17T23:35:34.990Z,69.30
2023-01-17T23:38:21.477Z,61.67
2023-01-17T23:41:08.869Z,67.00
2023-01-17T23:43:36.690Z,60.57
2023-01-17T23:46:04.884Z,63.23
2023-01-17T23:48:32.096Z,63.00
2023-01-17T23:51:02.313Z,55.97
2023-01-17T23:53:29.222Z,63.40
2023-01-17T23:55:57.252Z,57.50
2023-01-17T23:58:26.907Z,64.70
